createdAt,value
2022-09-04T00:02:40.534Z,16.50
2022-09-04T00:05:41.300Z,16.50
2022-09-04T00:08:38.334Z,16.40
2022-09-04T00:11:16.587Z,16.40
2022-09-04T00:14:10.172Z,16.40
2022-09-04T00:16:53.907Z,16.40
2022-09-04T00:19:45.301Z,16.40
2022-09-04T00:22:35.068Z,16.30
2022-09-04T00:25:12.960Z,16.30
2022-09-04T00:27:48.763Z,16.30
2022-09-04T00:30:27.279Z,16.40
2022-09-04T00:33:24.449Z,16.40
2022-09-04T00:35:59.814Z,16.40
2022-09-04T00:38:38.017Z,16.40
2022-09-04T00:41:37.218Z,16.30
2022-09-04T00:44:30.268Z,16.30
2022-09-04T00:47:29.260Z,16.30
2022-09-04T00:50:07.267Z,16.30
2022-09-04T00:53:01.488Z,16.30
2022-09-04T00:55:55.408Z,16.30
2022-09-04T00:58:56.360Z,16.30
2022-09-04T01:01:36.738Z,16.30
2022-09-04T01:04:28.847Z,16.30
2022-09-04T01:07:14.627Z,16.40
2022-09-04T01:10:01.500Z,16.40
2022-09-04T01:12:48.577Z,16.40
2022-09-04T01:15:29.763Z,16.40
2022-09-04T01:18:34.718Z,16.30
2022-09-04T01:21:32.829Z,16.40
2022-09-04T01:24:27.734Z,16.30
2022-09-04T01:27:20.841Z,16.30
2022-09-04T01:30:04.619Z,16.40
2022-09-04T01:33:12.992Z,16.30
2022-09-04T01:35:53.931Z,16.30
2022-09-04T01:38:47.624Z,16.30
2022-09-04T01:41:34.029Z,16.30
2022-09-04T01:44:06.795Z,16.30
2022-09-04T01:46:44.911Z,16.30
2022-09-04T01:49:29.093Z,16.40
2022-09-04T01:52:16.257Z,16.40
2022-09-04T01:54:58.376Z,16.40
2022-09-04T01:58:00.312Z,16.40
2022-09-04T02:00:35.890Z,16.30
2022-09-04T02:03:33.585Z,16.30
2022-09-04T02:06:14.984Z,16.30
2022-09-04T02:09:12.186Z,16.30
2022-09-04T02:11:47.319Z,16.30
2022-09-04T02:14:40.416Z,16.30
2022-09-04T02:17:19.800Z,16.30
2022-09-04T02:20:13.223Z,16.30
2022-09-04T02:23:09.915Z,16.30
2022-09-04T02:25:53.687Z,16.30
2022-09-04T02:28:43.490Z,16.20
2022-09-04T02:31:24.714Z,16.20
2022-09-04T02:34:02.546Z,16.20
2022-09-04T02:36:55.896Z,16.20
2022-09-04T02:39:40.061Z,16.20
2022-09-04T02:42:14.783Z,16.10
2022-09-04T02:45:21.767Z,16.10
2022-09-04T02:48:11.768Z,16.10
2022-09-04T02:50:49.797Z,16.10
2022-09-04T02:53:41.200Z,16.10
2022-09-04T02:56:19.002Z,16.10
2022-09-04T02:59:13.724Z,16.10
2022-09-04T03:01:58.597Z,16.10
2022-09-04T03:04:51.286Z,16.10
2022-09-04T03:07:26.421Z,16.10
2022-09-04T03:10:02.147Z,16.00
2022-09-04T03:12:45.706Z,16.00
2022-09-04T03:15:37.133Z,16.00
2022-09-04T03:18:35.725Z,16.00
2022-09-04T03:21:16.706Z,16.00
2022-09-04T03:24:03.563Z,15.90
2022-09-04T03:26:44.765Z,15.90
2022-09-04T03:29:27.698Z,15.90
2022-09-04T03:32:09.763Z,15.90
2022-09-04T03:34:54.448Z,15.80
2022-09-04T03:37:51.234Z,15.80
2022-09-04T03:40:38.119Z,15.80
2022-09-04T03:43:22.136Z,15.80
2022-09-04T03:46:11.990Z,15.80
2022-09-04T03:48:50.981Z,15.80
2022-09-04T03:51:34.439Z,15.80
2022-09-04T03:54:15.214Z,15.80
2022-09-04T03:56:55.847Z,15.80
2022-09-04T03:59:39.921Z,15.80
2022-09-04T04:02:34.321Z,15.70
2022-09-04T04:05:14.718Z,15.70
2022-09-04T04:08:09.027Z,15.70
2022-09-04T04:10:56.556Z,15.60
2022-09-04T04:13:49.648Z,15.60
2022-09-04T04:16:41.674Z,15.60
2022-09-04T04:19:25.701Z,15.60
2022-09-04T04:22:04.129Z,15.60
2022-09-04T04:24:56.089Z,15.60
2022-09-04T04:27:34.170Z,15.50
2022-09-04T04:30:18.873Z,15.50
2022-09-04T04:32:53.519Z,15.50
2022-09-04T04:35:46.540Z,15.50
2022-09-04T04:38:39.494Z,15.50
2022-09-04T04:41:23.306Z,15.50
2022-09-04T04:44:07.255Z,15.50
2022-09-04T04:46:47.729Z,15.50
2022-09-04T04:49:31.687Z,15.50
2022-09-04T04:52:24.565Z,15.50
2022-09-04T04:55:08.273Z,15.50
2022-09-04T04:57:51.482Z,15.50
2022-09-04T05:00:27.795Z,15.50
2022-09-04T05:03:30.440Z,15.50
2022-09-04T05:06:11.498Z,15.50
2022-09-04T05:09:16.975Z,15.50
2022-09-04T05:11:58.528Z,15.40
2022-09-04T05:14:49.851Z,15.40
2022-09-04T05:17:30.292Z,15.40
2022-09-04T05:20:24.252Z,15.40
2022-09-04T05:23:02.193Z,15.40
2022-09-04T05:25:45.952Z,15.30
2022-09-04T05:28:42.853Z,15.30
2022-09-04T05:31:29.663Z,15.20
2022-09-04T05:34:09.973Z,15.20
2022-09-04T05:37:00.256Z,15.20
2022-09-04T05:39:41.011Z,15.20
2022-09-04T05:42:25.237Z,15.20
2022-09-04T05:45:02.476Z,15.10
2022-09-04T05:47:53.925Z,15.10
2022-09-04T05:50:38.253Z,15.10
2022-09-04T05:53:22.085Z,15.10
2022-09-04T05:56:09.099Z,15.00
2022-09-04T05:59:09.776Z,15.00
2022-09-04T06:02:03.628Z,14.90
2022-09-04T06:04:57.733Z,14.90
2022-09-04T06:07:47.688Z,14.80
2022-09-04T06:10:29.443Z,14.80
2022-09-04T06:13:33.795Z,14.80
2022-09-04T06:16:14.906Z,14.70
2022-09-04T06:19:02.110Z,14.70
2022-09-04T06:21:45.837Z,14.70
2022-09-04T06:24:33.057Z,14.70
2022-09-04T06:27:11.096Z,14.70
2022-09-04T06:29:46.250Z,14.60
2022-09-04T06:32:27.207Z,14.60
2022-09-04T06:35:34.694Z,14.60
2022-09-04T06:38:12.786Z,14.60
2022-09-04T06:40:47.968Z,14.60
2022-09-04T06:43:29.496Z,14.50
2022-09-04T06:46:13.816Z,14.50
2022-09-04T06:49:05.124Z,14.50
2022-09-04T06:52:09.395Z,14.40
2022-09-04T06:55:00.201Z,14.40
2022-09-04T06:57:53.239Z,14.30
2022-09-04T07:00:26.149Z,14.30
2022-09-04T07:03:21.633Z,14.30
2022-09-04T07:05:56.852Z,14.30
2022-09-04T07:08:34.958Z,14.30
2022-09-04T07:11:25.131Z,14.20
2022-09-04T07:14:33.791Z,14.20
2022-09-04T07:17:29.489Z,14.20
2022-09-04T07:20:21.014Z,14.20
2022-09-04T07:23:07.073Z,14.20
2022-09-04T07:25:51.614Z,14.10
2022-09-04T07:28:46.309Z,14.10
2022-09-04T07:31:24.256Z,14.10
2022-09-04T07:34:05.145Z,14.10
2022-09-04T07:37:04.550Z,14.10
2022-09-04T07:39:56.856Z,14.00
2022-09-04T07:42:41.576Z,14.00
2022-09-04T07:45:27.941Z,14.00
2022-09-04T07:48:11.621Z,13.90
2022-09-04T07:51:08.397Z,13.90
2022-09-04T07:54:06.317Z,13.90
2022-09-04T07:56:59.472Z,13.90
2022-09-04T07:59:43.454Z,13.80
2022-09-04T08:02:36.828Z,13.80
2022-09-04T08:05:29.254Z,13.80
2022-09-04T08:08:30.343Z,13.80
2022-09-04T08:11:14.083Z,13.70
2022-09-04T08:13:49.894Z,13.70
2022-09-04T08:16:39.961Z,13.70
2022-09-04T08:19:43.357Z,13.70
2022-09-04T08:22:18.346Z,13.60
2022-09-04T08:25:14.094Z,13.60
2022-09-04T08:27:49.494Z,13.60
2022-09-04T08:30:26.347Z,13.60
2022-09-04T08:33:01.518Z,13.60
2022-09-04T08:35:42.220Z,13.50
2022-09-04T08:38:16.989Z,13.50
2022-09-04T08:41:13.998Z,13.50
2022-09-04T08:44:12.969Z,13.50
2022-09-04T08:47:12.226Z,13.50
2022-09-04T08:49:53.773Z,13.50
2022-09-04T08:52:44.869Z,13.50
2022-09-04T08:55:51.377Z,13.50
2022-09-04T08:58:48.703Z,13.40
2022-09-04T09:01:38.969Z,13.40
2022-09-04T09:04:20.421Z,13.40
2022-09-04T09:07:04.689Z,13.40
2022-09-04T09:09:45.341Z,13.40
2022-09-04T09:12:40.703Z,13.40
2022-09-04T09:15:24.110Z,13.40
2022-09-04T09:18:08.103Z,13.30
2022-09-04T09:21:03.650Z,13.30
2022-09-04T09:24:15.733Z,13.30
2022-09-04T09:27:14.616Z,13.30
2022-09-04T09:29:49.456Z,13.20
2022-09-04T09:32:51.834Z,13.20
2022-09-04T09:35:56.072Z,13.20
2022-09-04T09:38:43.424Z,13.20
2022-09-04T09:41:23.782Z,13.20
2022-09-04T09:44:21.026Z,13.20
2022-09-04T09:46:59.875Z,13.10
2022-09-04T09:49:51.584Z,13.10
2022-09-04T09:52:30.360Z,13.10
2022-09-04T09:55:24.350Z,13.10
2022-09-04T09:58:21.176Z,13.10
2022-09-04T10:01:08.518Z,13.10
2022-09-04T10:04:06.159Z,13.10
2022-09-04T10:07:04.235Z,13.10
2022-09-04T10:09:55.972Z,13.10
2022-09-04T10:12:47.395Z,13.00
2022-09-04T10:15:50.364Z,13.00
2022-09-04T10:18:37.569Z,13.00
2022-09-04T10:21:28.932Z,12.90
2022-09-04T10:24:20.566Z,12.90
2022-09-04T10:27:21.076Z,12.90
2022-09-04T10:30:18.340Z,12.90
2022-09-04T10:33:11.817Z,12.90
2022-09-04T10:36:01.486Z,12.80
2022-09-04T10:38:43.016Z,12.80
2022-09-04T10:41:42.056Z,12.80
2022-09-04T10:44:17.069Z,12.80
2022-09-04T10:47:03.932Z,12.80
2022-09-04T10:49:38.678Z,12.80
2022-09-04T10:52:42.648Z,12.80
2022-09-04T10:55:26.377Z,12.80
2022-09-04T10:58:19.029Z,12.80
2022-09-04T11:01:13.595Z,12.80
2022-09-04T11:03:57.879Z,12.80
2022-09-04T11:06:54.663Z,12.80
2022-09-04T11:09:35.466Z,12.70
2022-09-04T11:12:41.707Z,12.80
2022-09-04T11:15:48.343Z,12.70
2022-09-04T11:18:39.879Z,12.70
2022-09-04T11:21:27.646Z,12.60
2022-09-04T11:24:31.175Z,12.60
2022-09-04T11:27:14.649Z,12.60
2022-09-04T11:29:53.841Z,12.60
2022-09-04T11:32:28.568Z,12.60
2022-09-04T11:35:22.574Z,12.60
2022-09-04T11:38:16.379Z,12.60
2022-09-04T11:41:26.463Z,12.60
2022-09-04T11:44:13.603Z,12.60
2022-09-04T11:47:04.346Z,12.60
2022-09-04T11:49:47.718Z,12.50
2022-09-04T11:52:32.916Z,12.50
2022-09-04T11:55:13.606Z,12.50
2022-09-04T11:57:49.694Z,12.50
2022-09-04T12:00:23.486Z,12.50
2022-09-04T12:03:00.662Z,12.50
2022-09-04T12:05:51.930Z,12.50
2022-09-04T12:08:43.470Z,12.50
2022-09-04T12:11:27.045Z,12.50
2022-09-04T12:14:21.742Z,12.50
2022-09-04T12:17:20.928Z,12.50
2022-09-04T12:20:11.117Z,12.50
2022-09-04T12:22:51.211Z,12.50
2022-09-04T12:25:51.788Z,12.50
2022-09-04T12:28:50.755Z,12.60
2022-09-04T12:31:58.892Z,12.50
2022-09-04T12:35:01.958Z,12.50
2022-09-04T12:37:59.345Z,12.50
2022-09-04T12:40:43.550Z,12.50
2022-09-04T12:43:38.785Z,12.50
2022-09-04T12:46:33.835Z,12.50
2022-09-04T12:49:28.890Z,12.50
2022-09-04T12:52:21.946Z,12.50
2022-09-04T12:55:16.926Z,12.50
2022-09-04T12:58:04.382Z,12.50
2022-09-04T13:00:48.462Z,12.50
2022-09-04T13:03:25.452Z,12.50
2022-09-04T13:06:06.391Z,12.50
2022-09-04T13:08:56.102Z,12.50
2022-09-04T13:11:37.213Z,12.50
2022-09-04T13:14:14.914Z,12.50
2022-09-04T13:16:55.749Z,12.50
2022-09-04T13:19:39.637Z,12.50
2022-09-04T13:22:41.758Z,12.50
2022-09-04T13:25:23.640Z,12.40
2022-09-04T13:28:17.070Z,12.50
2022-09-04T13:30:53.205Z,12.40
2022-09-04T13:33:33.174Z,12.40
2022-09-04T13:36:12.019Z,12.50
2022-09-04T13:39:12.690Z,12.50
2022-09-04T13:41:59.732Z,12.40
2022-09-04T13:44:41.845Z,12.50
2022-09-04T13:47:22.880Z,12.50
2022-09-04T13:50:13.222Z,12.40
2022-09-04T13:53:00.119Z,12.40
2022-09-04T13:55:35.212Z,12.40
2022-09-04T13:58:25.701Z,12.40
2022-09-04T14:01:01.206Z,12.40
2022-09-04T14:03:45.485Z,12.40
2022-09-04T14:06:20.235Z,12.30
2022-09-04T14:09:05.639Z,12.40
2022-09-04T14:11:48.138Z,12.40
2022-09-04T14:14:23.089Z,12.40
2022-09-04T14:16:58.154Z,12.30
2022-09-04T14:19:40.712Z,12.40
2022-09-04T14:22:18.331Z,12.30
2022-09-04T14:25:11.951Z,12.30
2022-09-04T14:28:11.357Z,12.30
2022-09-04T14:30:49.163Z,12.30
2022-09-04T14:33:35.494Z,12.30
2022-09-04T14:36:11.896Z,12.30
2022-09-04T14:38:58.873Z,12.30
2022-09-04T14:41:45.924Z,12.30
2022-09-04T14:44:20.443Z,12.30
2022-09-04T14:47:16.057Z,12.30
2022-09-04T14:49:51.138Z,12.30
2022-09-04T14:52:26.065Z,12.30
2022-09-04T14:55:03.287Z,12.30
2022-09-04T14:57:49.659Z,12.30
2022-09-04T15:00:24.559Z,12.30
2022-09-04T15:03:08.084Z,12.30
2022-09-04T15:05:53.059Z,12.30
2022-09-04T15:08:40.808Z,12.30
2022-09-04T15:11:18.400Z,12.30
2022-09-04T15:13:58.447Z,12.30
2022-09-04T15:16:39.744Z,12.30
2022-09-04T15:19:40.467Z,12.40
2022-09-04T15:22:18.664Z,12.40
2022-09-04T15:25:14.433Z,12.40
2022-09-04T15:27:57.168Z,12.40
2022-09-04T15:30:40.576Z,12.40
2022-09-04T15:33:13.943Z,12.40
2022-09-04T15:35:47.687Z,12.40
2022-09-04T15:38:27.138Z,12.40
2022-09-04T15:41:18.175Z,12.50
2022-09-04T15:43:45.364Z,12.50
2022-09-04T15:46:28.812Z,12.50
2022-09-04T15:49:20.177Z,12.50
2022-09-04T15:52:16.326Z,12.50
2022-09-04T15:55:00.177Z,12.50
2022-09-04T15:57:49.295Z,12.50
2022-09-04T16:00:26.652Z,12.50
2022-09-04T16:03:04.775Z,12.50
2022-09-04T16:05:54.382Z,12.50
2022-09-04T16:08:47.026Z,12.60
2022-09-04T16:11:44.235Z,12.60
2022-09-04T16:14:30.932Z,12.60
2022-09-04T16:17:17.377Z,12.60
2022-09-04T16:19:59.611Z,12.60
2022-09-04T16:22:50.912Z,12.60
2022-09-04T16:25:31.263Z,12.70
2022-09-04T16:28:23.211Z,12.70
2022-09-04T16:31:06.869Z,12.70
2022-09-04T16:33:41.980Z,12.70
2022-09-04T16:36:45.032Z,12.70
2022-09-04T16:39:38.122Z,12.70
2022-09-04T16:42:25.495Z,12.70
2022-09-04T16:45:06.260Z,12.70
2022-09-04T16:48:09.644Z,12.70
2022-09-04T16:50:45.686Z,12.70
2022-09-04T16:53:21.367Z,12.80
2022-09-04T16:56:08.454Z,12.80
2022-09-04T16:58:55.855Z,12.80
2022-09-04T17:01:55.925Z,12.80
2022-09-04T17:04:44.247Z,12.80
2022-09-04T17:07:18.766Z,12.80
2022-09-04T17:10:17.504Z,12.90
2022-09-04T17:13:09.245Z,12.90
2022-09-04T17:15:53.604Z,12.90
2022-09-04T17:18:30.714Z,12.90
2022-09-04T17:23:08.802Z,12.90
2022-09-04T17:29:01.514Z,12.90
2022-09-04T17:29:16.211Z,12.90
2022-09-04T17:29:37.166Z,12.90
2022-09-04T17:32:32.195Z,12.90
2022-09-04T17:40:41.787Z,12.90
2022-09-04T17:40:49.876Z,12.90
2022-09-04T17:41:39.510Z,13.00
2022-09-04T17:43:35.048Z,13.00
2022-09-04T17:46:27.547Z,12.90
2022-09-04T17:49:00.902Z,12.90
2022-09-04T17:51:37.691Z,12.90
2022-09-04T17:54:12.667Z,12.90
2022-09-04T17:56:50.278Z,12.90
2022-09-04T17:59:28.497Z,12.90
2022-09-04T18:02:03.194Z,13.00
2022-09-04T18:04:41.024Z,13.00
2022-09-04T18:08:09.904Z,13.00
2022-09-04T18:10:37.553Z,13.00
2022-09-04T18:13:36.580Z,12.90
2022-09-04T18:15:59.586Z,12.90
2022-09-04T18:18:34.257Z,12.90
2022-09-04T18:21:16.265Z,12.90
2022-09-04T18:24:06.892Z,12.90
2022-09-04T18:26:47.365Z,13.00
2022-09-04T18:30:57.173Z,13.00
2022-09-04T18:37:08.513Z,13.00
2022-09-04T18:37:24.934Z,13.00
2022-09-04T18:37:47.330Z,13.00
2022-09-04T18:41:23.945Z,12.90
2022-09-04T18:50:23.164Z,12.90
2022-09-04T18:50:36.089Z,12.90
2022-09-04T18:50:43.761Z,12.90
2022-09-04T18:51:21.791Z,12.90
2022-09-04T18:53:56.611Z,12.90
2022-09-04T18:56:36.677Z,12.90
2022-09-04T18:59:38.130Z,12.90
2022-09-04T19:02:09.727Z,12.80
2022-09-04T19:04:57.265Z,12.80
2022-09-04T19:07:49.810Z,12.80
2022-09-04T19:10:36.741Z,12.80
2022-09-04T19:13:11.976Z,12.70
2022-09-04T19:15:55.988Z,12.70
2022-09-04T19:18:33.880Z,12.80
2022-09-04T19:21:15.907Z,12.80
2022-09-04T19:24:08.666Z,12.70
2022-09-04T19:26:44.212Z,12.70
2022-09-04T19:29:24.388Z,12.70
2022-09-04T19:32:02.077Z,12.70
2022-09-04T19:34:37.377Z,12.70
2022-09-04T19:40:51.840Z,12.70
2022-09-04T19:45:56.556Z,12.70
2022-09-04T19:46:02.730Z,12.70
2022-09-04T19:46:13.318Z,12.70
2022-09-04T19:47:52.408Z,12.70
2022-09-04T19:53:23.137Z,12.70
2022-09-04T19:53:37.988Z,12.70
2022-09-04T19:56:06.677Z,12.70
2022-09-04T19:59:02.864Z,12.70
2022-09-04T20:01:43.410Z,12.70
2022-09-04T20:04:24.632Z,12.70
2022-09-04T20:07:00.652Z,12.70
2022-09-04T20:09:50.504Z,12.70
2022-09-04T20:12:34.240Z,12.70
2022-09-04T20:15:13.176Z,12.70
2022-09-04T20:17:48.016Z,12.60
2022-09-04T20:20:23.847Z,12.60
2022-09-04T20:22:58.413Z,12.50
2022-09-04T20:25:51.121Z,12.40
2022-09-04T20:28:32.238Z,12.30
2022-09-04T20:31:28.770Z,12.30
2022-09-04T20:34:15.376Z,12.20
2022-09-04T20:36:50.894Z,12.20
2022-09-04T20:39:37.988Z,12.10
2022-09-04T20:42:15.488Z,12.10
2022-09-04T20:47:06.782Z,12.10
2022-09-04T20:52:48.682Z,12.10
2022-09-04T20:52:49.131Z,12.00
2022-09-04T20:53:29.742Z,12.00
2022-09-04T20:56:53.760Z,11.90
2022-09-04T21:03:07.980Z,11.90
2022-09-04T21:03:17.936Z,11.90
2022-09-04T21:04:37.646Z,11.90
2022-09-04T21:06:56.543Z,11.90
2022-09-04T21:09:37.408Z,11.90
2022-09-04T21:12:28.988Z,11.90
2022-09-04T21:15:04.399Z,11.80
2022-09-04T21:17:55.388Z,11.80
2022-09-04T21:20:59.852Z,11.80
2022-09-04T21:23:41.306Z,11.80
2022-09-04T21:26:26.755Z,11.80
2022-09-04T21:29:30.361Z,11.80
2022-09-04T21:32:24.544Z,11.80
2022-09-04T21:35:14.588Z,11.80
2022-09-04T21:38:20.399Z,11.80
2022-09-04T21:41:18.040Z,11.80
2022-09-04T21:44:21.479Z,11.80
2022-09-04T21:50:06.124Z,11.80
2022-09-04T21:52:52.999Z,11.80
2022-09-04T22:00:32.105Z,11.80
2022-09-04T22:02:40.288Z,11.80
2022-09-04T22:02:45.492Z,11.80
2022-09-04T22:03:55.019Z,11.90
2022-09-04T22:08:01.172Z,11.90
2022-09-04T22:13:30.042Z,11.90
2022-09-04T22:13:41.293Z,11.90
2022-09-04T22:14:43.657Z,11.90
2022-09-04T22:17:27.604Z,11.90
2022-09-04T22:20:34.853Z,11.90
2022-09-04T22:23:07.546Z,11.90
2022-09-04T22:26:24.289Z,11.90
2022-09-04T22:28:50.204Z,11.90
2022-09-04T22:31:33.951Z,11.90
2022-09-04T22:34:17.178Z,11.90
2022-09-04T22:37:22.884Z,11.90
2022-09-04T22:40:07.083Z,11.90
2022-09-04T22:43:01.908Z,11.90
2022-09-04T22:45:48.234Z,11.90
2022-09-04T22:49:09.911Z,11.90
2022-09-04T22:51:27.390Z,11.90
2022-09-04T22:54:10.685Z,11.90
2022-09-04T22:56:45.774Z,11.90
2022-09-04T22:59:29.526Z,11.90
2022-09-04T23:02:13.580Z,11.90
2022-09-04T23:04:58.188Z,11.90
2022-09-04T23:11:15.483Z,11.90
2022-09-04T23:14:00.081Z,11.90
2022-09-04T23:14:05.243Z,11.90
2022-09-04T23:16:41.660Z,11.90
2022-09-04T23:26:45.335Z,11.90
2022-09-04T23:26:50.902Z,12.00
2022-09-04T23:26:53.675Z,11.90
2022-09-04T23:28:27.048Z,12.00
2022-09-04T23:30:49.306Z,12.00
2022-09-04T23:33:41.713Z,12.10
2022-09-04T23:36:33.704Z,12.10
2022-09-04T23:39:15.395Z,12.10
2022-09-04T23:41:59.067Z,12.10
2022-09-04T23:44:59.411Z,12.10
2022-09-04T23:47:53.624Z,12.10
2022-09-04T23:50:28.299Z,12.20
2022-09-04T23:53:17.890Z,12.20
2022-09-04T23:56:16.451Z,12.10
2022-09-04T23:59:33.861Z,12.10
